Terminal Aerodrome Forecast
Issued by NWS Wilmington, OH

Current Version | Previous Version | Graphics & Text | Print | Product List | Glossary On
Versions: 1 2 3 4 5 6 7 8 9 10 11 12 13 14 15 16 17 18 19 20 21 22 23 24 25 26 27 28
149
FTUS41 KILN 232107 AAA
TAFCVG
TAF AMD
KCVG 232107Z 2321/2424 25017G26KT P6SM VCSH OVC016
     FM232200 26013G21KT 5SM BR VCSH OVC016
     FM240200 28009KT 4SM BR VCSH OVC014
     FM240700 29008KT P6SM OVC012
     FM241900 26007KT P6SM BKN022=

USA.gov is the U.S. government's official web portal to all federal, state and local government web resources and services.